sensor_id;sensor_type;location;lat;lon;timestamp;P1;durP1;ratioP1;P2;durP2;ratioP2
495;SDS011;39559;48.630;9.162;2022-08-27T00:02:04;18.10;;;13.33;;
495;SDS011;39559;48.630;9.162;2022-08-27T00:04:31;16.48;;;13.23;;
495;SDS011;39559;48.630;9.162;2022-08-27T00:06:57;15.07;;;13.43;;
495;SDS011;39559;48.630;9.162;2022-08-27T00:09:23;18.55;;;14.10;;
495;SDS011;39559;48.630;9.162;2022-08-27T00:13:29;16.38;;;13.18;;
495;SDS011;39559;48.630;9.162;2022-08-27T00:15:54;15.97;;;12.93;;
495;SDS011;39559;48.630;9.162;2022-08-27T00:18:20;18.00;;;14.07;;
495;SDS011;39559;48.630;9.162;2022-08-27T00:20:45;16.83;;;13.67;;
495;SDS011;39559;48.630;9.162;2022-08-27T00:23:11;21.93;;;14.70;;
495;SDS011;39559;48.630;9.162;2022-08-27T00:25:37;16.27;;;13.47;;
495;SDS011;39559;48.630;9.162;2022-08-27T00:28:03;20.55;;;13.68;;
495;SDS011;39559;48.630;9.162;2022-08-27T00:30:28;16.70;;;14.90;;
495;SDS011;39559;48.630;9.162;2022-08-27T00:32:54;14.77;;;13.27;;
495;SDS011;39559;48.630;9.162;2022-08-27T00:37:25;18.67;;;13.85;;
495;SDS011;39559;48.630;9.162;2022-08-27T00:39:51;15.60;;;14.00;;
495;SDS011;39559;48.630;9.162;2022-08-27T00:42:17;14.20;;;12.70;;
495;SDS011;39559;48.630;9.162;2022-08-27T00:44:43;18.23;;;14.30;;
495;SDS011;39559;48.630;9.162;2022-08-27T00:47:13;16.23;;;13.67;;
495;SDS011;39559;48.630;9.162;2022-08-27T00:52:21;15.20;;;13.60;;
495;SDS011;39559;48.630;9.162;2022-08-27T00:54:50;18.75;;;12.75;;
495;SDS011;39559;48.630;9.162;2022-08-27T00:57:21;19.85;;;14.82;;
495;SDS011;39559;48.630;9.162;2022-08-27T01:01:23;15.35;;;12.90;;
495;SDS011;39559;48.630;9.162;2022-08-27T01:03:58;14.43;;;12.73;;
495;SDS011;39559;48.630;9.162;2022-08-27T01:06:27;16.98;;;14.98;;
495;SDS011;39559;48.630;9.162;2022-08-27T01:09:00;14.80;;;13.25;;
495;SDS011;39559;48.630;9.162;2022-08-27T01:11:32;19.25;;;15.02;;
495;SDS011;39559;48.630;9.162;2022-08-27T01:13:58;17.02;;;13.82;;
495;SDS011;39559;48.630;9.162;2022-08-27T01:16:25;15.10;;;13.60;;
495;SDS011;39559;48.630;9.162;2022-08-27T01:18:56;14.55;;;13.02;;
495;SDS011;39559;48.630;9.162;2022-08-27T01:21:28;16.63;;;14.05;;
495;SDS011;39559;48.630;9.162;2022-08-27T01:25:18;14.55;;;13.05;;
495;SDS011;39559;48.630;9.162;2022-08-27T01:27:45;15.20;;;12.60;;
495;SDS011;39559;48.630;9.162;2022-08-27T01:30:13;14.55;;;13.15;;
495;SDS011;39559;48.630;9.162;2022-08-27T01:32:41;15.75;;;13.00;;
495;SDS011;39559;48.630;9.162;2022-08-27T01:35:08;17.95;;;13.50;;
495;SDS011;39559;48.630;9.162;2022-08-27T01:37:34;14.80;;;12.80;;
495;SDS011;39559;48.630;9.162;2022-08-27T01:40:02;14.93;;;12.20;;
495;SDS011;39559;48.630;9.162;2022-08-27T01:42:31;17.85;;;14.18;;
495;SDS011;39559;48.630;9.162;2022-08-27T01:45:09;19.92;;;13.40;;
495;SDS011;39559;48.630;9.162;2022-08-27T01:49:14;17.92;;;13.20;;
495;SDS011;39559;48.630;9.162;2022-08-27T01:51:39;16.53;;;13.37;;
495;SDS011;39559;48.630;9.162;2022-08-27T01:54:05;14.48;;;12.77;;
495;SDS011;39559;48.630;9.162;2022-08-27T01:56:31;21.10;;;13.20;;
495;SDS011;39559;48.630;9.162;2022-08-27T01:58:56;14.83;;;12.47;;
495;SDS011;39559;48.630;9.162;2022-08-27T02:01:22;15.90;;;12.80;;
495;SDS011;39559;48.630;9.162;2022-08-27T02:03:47;19.30;;;13.23;;
495;SDS011;39559;48.630;9.162;2022-08-27T02:06:13;18.20;;;13.20;;
495;SDS011;39559;48.630;9.162;2022-08-27T02:08:39;18.37;;;14.43;;
495;SDS011;39559;48.630;9.162;2022-08-27T02:13:10;15.82;;;14.13;;
495;SDS011;39559;48.630;9.162;2022-08-27T02:15:37;16.02;;;14.07;;
495;SDS011;39559;48.630;9.162;2022-08-27T02:18:05;15.65;;;13.63;;
495;SDS011;39559;48.630;9.162;2022-08-27T02:20:31;17.25;;;13.30;;
495;SDS011;39559;48.630;9.162;2022-08-27T02:22:58;17.13;;;13.43;;
495;SDS011;39559;48.630;9.162;2022-08-27T02:25:25;15.20;;;12.07;;
495;SDS011;39559;48.630;9.162;2022-08-27T02:27:53;14.30;;;12.80;;
495;SDS011;39559;48.630;9.162;2022-08-27T02:30:21;23.35;;;14.45;;
495;SDS011;39559;48.630;9.162;2022-08-27T02:32:48;15.48;;;13.98;;
495;SDS011;39559;48.630;9.162;2022-08-27T02:37:06;13.70;;;12.27;;
495;SDS011;39559;48.630;9.162;2022-08-27T02:39:32;15.80;;;13.27;;
495;SDS011;39559;48.630;9.162;2022-08-27T02:41:58;17.25;;;12.35;;
495;SDS011;39559;48.630;9.162;2022-08-27T02:44:24;14.07;;;12.68;;
495;SDS011;39559;48.630;9.162;2022-08-27T02:46:51;17.02;;;14.85;;
495;SDS011;39559;48.630;9.162;2022-08-27T02:49:16;15.80;;;13.33;;
495;SDS011;39559;48.630;9.162;2022-08-27T02:51:42;14.03;;;12.27;;
495;SDS011;39559;48.630;9.162;2022-08-27T02:54:08;17.73;;;13.38;;
495;SDS011;39559;48.630;9.162;2022-08-27T02:56:34;16.30;;;14.60;;
495;SDS011;39559;48.630;9.162;2022-08-27T03:01:03;16.10;;;14.40;;
495;SDS011;39559;48.630;9.162;2022-08-27T03:03:29;16.83;;;14.63;;
495;SDS011;39559;48.630;9.162;2022-08-27T03:05:55;16.52;;;14.82;;
495;SDS011;39559;48.630;9.162;2022-08-27T03:08:23;19.55;;;15.50;;
495;SDS011;39559;48.630;9.162;2022-08-27T03:10:50;20.15;;;15.95;;
495;SDS011;39559;48.630;9.162;2022-08-27T03:13:17;19.83;;;16.13;;
495;SDS011;39559;48.630;9.162;2022-08-27T03:15:43;22.80;;;15.90;;
495;SDS011;39559;48.630;9.162;2022-08-27T03:18:08;16.97;;;14.60;;
495;SDS011;39559;48.630;9.162;2022-08-27T03:20:50;16.50;;;14.63;;
495;SDS011;39559;48.630;9.162;2022-08-27T03:25:00;21.05;;;17.00;;
495;SDS011;39559;48.630;9.162;2022-08-27T03:27:27;20.35;;;15.85;;
495;SDS011;39559;48.630;9.162;2022-08-27T03:29:52;18.83;;;16.30;;
495;SDS011;39559;48.630;9.162;2022-08-27T03:32:18;21.83;;;15.90;;
495;SDS011;39559;48.630;9.162;2022-08-27T03:34:44;20.33;;;15.03;;
495;SDS011;39559;48.630;9.162;2022-08-27T03:37:09;17.20;;;13.60;;
495;SDS011;39559;48.630;9.162;2022-08-27T03:39:35;20.73;;;15.07;;
495;SDS011;39559;48.630;9.162;2022-08-27T03:42:00;17.97;;;13.80;;
495;SDS011;39559;48.630;9.162;2022-08-27T03:44:26;20.10;;;14.47;;
495;SDS011;39559;48.630;9.162;2022-08-27T03:48:56;17.50;;;14.60;;
495;SDS011;39559;48.630;9.162;2022-08-27T03:51:21;20.10;;;15.73;;
495;SDS011;39559;48.630;9.162;2022-08-27T03:53:47;20.50;;;16.57;;
495;SDS011;39559;48.630;9.162;2022-08-27T03:56:13;20.60;;;18.40;;
495;SDS011;39559;48.630;9.162;2022-08-27T03:58:39;31.40;;;19.13;;
495;SDS011;39559;48.630;9.162;2022-08-27T04:01:06;21.87;;;18.60;;
495;SDS011;39559;48.630;9.162;2022-08-27T04:03:32;25.23;;;19.33;;
495;SDS011;39559;48.630;9.162;2022-08-27T04:05:58;23.73;;;18.80;;
495;SDS011;39559;48.630;9.162;2022-08-27T04:08:24;23.07;;;17.70;;
495;SDS011;39559;48.630;9.162;2022-08-27T04:12:52;22.20;;;19.10;;
495;SDS011;39559;48.630;9.162;2022-08-27T04:15:18;22.03;;;19.13;;
495;SDS011;39559;48.630;9.162;2022-08-27T04:17:44;25.00;;;20.00;;
495;SDS011;39559;48.630;9.162;2022-08-27T04:20:09;19.10;;;16.07;;
495;SDS011;39559;48.630;9.162;2022-08-27T04:22:36;22.65;;;17.85;;
495;SDS011;39559;48.630;9.162;2022-08-27T04:25:03;19.80;;;16.37;;
495;SDS011;39559;48.630;9.162;2022-08-27T04:27:30;26.75;;;16.88;;
495;SDS011;39559;48.630;9.162;2022-08-27T04:29:57;19.10;;;17.10;;
495;SDS011;39559;48.630;9.162;2022-08-27T04:32:25;22.40;;;18.33;;
495;SDS011;39559;48.630;9.162;2022-08-27T04:36:49;19.92;;;16.55;;
495;SDS011;39559;48.630;9.162;2022-08-27T04:39:14;22.40;;;18.60;;
495;SDS011;39559;48.630;9.162;2022-08-27T04:41:40;19.43;;;16.50;;
495;SDS011;39559;48.630;9.162;2022-08-27T04:44:07;24.10;;;19.00;;
495;SDS011;39559;48.630;9.162;2022-08-27T04:46:35;26.00;;;18.80;;
495;SDS011;39559;48.630;9.162;2022-08-27T04:49:04;21.87;;;17.60;;
495;SDS011;39559;48.630;9.162;2022-08-27T04:51:35;24.50;;;18.10;;
495;SDS011;39559;48.630;9.162;2022-08-27T04:54:01;25.30;;;18.87;;
495;SDS011;39559;48.630;9.162;2022-08-27T04:56:28;30.83;;;19.17;;
495;SDS011;39559;48.630;9.162;2022-08-27T05:00:46;25.40;;;19.10;;
495;SDS011;39559;48.630;9.162;2022-08-27T05:03:14;22.07;;;17.23;;
495;SDS011;39559;48.630;9.162;2022-08-27T05:05:41;26.87;;;21.17;;
495;SDS011;39559;48.630;9.162;2022-08-27T05:08:08;27.30;;;19.00;;
495;SDS011;39559;48.630;9.162;2022-08-27T05:10:43;27.02;;;20.10;;
495;SDS011;39559;48.630;9.162;2022-08-27T05:13:14;20.08;;;16.15;;
495;SDS011;39559;48.630;9.162;2022-08-27T05:15:43;20.93;;;17.50;;
495;SDS011;39559;48.630;9.162;2022-08-27T05:18:09;25.87;;;20.43;;
495;SDS011;39559;48.630;9.162;2022-08-27T05:20:41;23.53;;;19.33;;
495;SDS011;39559;48.630;9.162;2022-08-27T05:24:42;25.77;;;19.33;;
495;SDS011;39559;48.630;9.162;2022-08-27T05:27:07;27.53;;;19.30;;
495;SDS011;39559;48.630;9.162;2022-08-27T05:29:33;28.63;;;19.30;;
495;SDS011;39559;48.630;9.162;2022-08-27T05:31:59;28.03;;;20.03;;
495;SDS011;39559;48.630;9.162;2022-08-27T05:34:24;33.40;;;23.37;;
495;SDS011;39559;48.630;9.162;2022-08-27T05:36:50;55.63;;;41.40;;
495;SDS011;39559;48.630;9.162;2022-08-27T05:39:17;66.43;;;46.60;;
495;SDS011;39559;48.630;9.162;2022-08-27T05:41:42;68.23;;;48.67;;
495;SDS011;39559;48.630;9.162;2022-08-27T05:44:08;64.87;;;46.90;;
495;SDS011;39559;48.630;9.162;2022-08-27T05:48:38;60.80;;;47.23;;
495;SDS011;39559;48.630;9.162;2022-08-27T05:53:38;56.00;;;46.10;;
495;SDS011;39559;48.630;9.162;2022-08-27T05:56:10;61.50;;;47.20;;
495;SDS011;39559;48.630;9.162;2022-08-27T05:58:40;56.23;;;46.57;;
495;SDS011;39559;48.630;9.162;2022-08-27T06:01:25;57.03;;;44.90;;
495;SDS011;39559;48.630;9.162;2022-08-27T06:03:51;58.77;;;45.67;;
495;SDS011;39559;48.630;9.162;2022-08-27T06:06:19;54.57;;;45.03;;
495;SDS011;39559;48.630;9.162;2022-08-27T06:08:47;58.23;;;43.83;;
495;SDS011;39559;48.630;9.162;2022-08-27T06:12:35;58.10;;;43.77;;
495;SDS011;39559;48.630;9.162;2022-08-27T06:15:00;55.20;;;43.53;;
495;SDS011;39559;48.630;9.162;2022-08-27T06:17:26;52.70;;;42.63;;
495;SDS011;39559;48.630;9.162;2022-08-27T06:19:53;53.20;;;43.27;;
495;SDS011;39559;48.630;9.162;2022-08-27T06:22:19;54.47;;;43.73;;
495;SDS011;39559;48.630;9.162;2022-08-27T06:24:44;60.17;;;44.53;;
495;SDS011;39559;48.630;9.162;2022-08-27T06:27:12;51.87;;;41.83;;
495;SDS011;39559;48.630;9.162;2022-08-27T06:29:39;52.87;;;43.10;;
495;SDS011;39559;48.630;9.162;2022-08-27T06:32:06;53.63;;;42.40;;
495;SDS011;39559;48.630;9.162;2022-08-27T06:36:36;56.03;;;43.87;;
495;SDS011;39559;48.630;9.162;2022-08-27T06:39:04;57.10;;;44.40;;
495;SDS011;39559;48.630;9.162;2022-08-27T06:41:31;56.23;;;44.00;;
495;SDS011;39559;48.630;9.162;2022-08-27T06:43:57;58.93;;;45.50;;
495;SDS011;39559;48.630;9.162;2022-08-27T06:46:24;59.43;;;44.17;;
495;SDS011;39559;48.630;9.162;2022-08-27T06:48:51;54.97;;;44.23;;
495;SDS011;39559;48.630;9.162;2022-08-27T06:51:23;58.00;;;44.50;;
495;SDS011;39559;48.630;9.162;2022-08-27T06:53:54;60.80;;;44.87;;
495;SDS011;39559;48.630;9.162;2022-08-27T06:56:22;57.50;;;44.83;;
495;SDS011;39559;48.630;9.162;2022-08-27T07:00:28;52.63;;;41.90;;
495;SDS011;39559;48.630;9.162;2022-08-27T07:02:53;57.80;;;43.20;;
495;SDS011;39559;48.630;9.162;2022-08-27T07:05:19;51.33;;;40.17;;
495;SDS011;39559;48.630;9.162;2022-08-27T07:07:45;51.87;;;42.23;;
495;SDS011;39559;48.630;9.162;2022-08-27T07:10:10;50.23;;;39.80;;
495;SDS011;39559;48.630;9.162;2022-08-27T07:12:36;47.43;;;39.40;;
495;SDS011;39559;48.630;9.162;2022-08-27T07:15:02;54.33;;;41.00;;
495;SDS011;39559;48.630;9.162;2022-08-27T07:17:28;50.90;;;39.50;;
495;SDS011;39559;48.630;9.162;2022-08-27T07:19:53;51.70;;;42.60;;
495;SDS011;39559;48.630;9.162;2022-08-27T07:24:24;42.80;;;33.67;;
495;SDS011;39559;48.630;9.162;2022-08-27T07:26:50;48.00;;;37.57;;
495;SDS011;39559;48.630;9.162;2022-08-27T07:29:15;37.50;;;32.30;;
495;SDS011;39559;48.630;9.162;2022-08-27T07:31:41;43.10;;;35.27;;
495;SDS011;39559;48.630;9.162;2022-08-27T07:34:07;43.80;;;34.93;;
495;SDS011;39559;48.630;9.162;2022-08-27T07:36:33;41.67;;;35.33;;
495;SDS011;39559;48.630;9.162;2022-08-27T07:39:00;43.87;;;36.37;;
495;SDS011;39559;48.630;9.162;2022-08-27T07:41:26;40.90;;;34.60;;
495;SDS011;39559;48.630;9.162;2022-08-27T07:43:52;46.67;;;35.50;;
495;SDS011;39559;48.630;9.162;2022-08-27T07:48:20;50.17;;;34.90;;
495;SDS011;39559;48.630;9.162;2022-08-27T07:50:49;43.37;;;34.87;;
495;SDS011;39559;48.630;9.162;2022-08-27T07:53:15;43.27;;;35.70;;
495;SDS011;39559;48.630;9.162;2022-08-27T07:55:41;45.30;;;35.83;;
495;SDS011;39559;48.630;9.162;2022-08-27T07:58:07;43.43;;;33.27;;
495;SDS011;39559;48.630;9.162;2022-08-27T08:00:33;43.80;;;33.80;;
495;SDS011;39559;48.630;9.162;2022-08-27T08:02:58;41.90;;;33.00;;
495;SDS011;39559;48.630;9.162;2022-08-27T08:05:25;38.33;;;31.90;;
495;SDS011;39559;48.630;9.162;2022-08-27T08:07:50;43.23;;;33.33;;
495;SDS011;39559;48.630;9.162;2022-08-27T08:12:17;44.07;;;32.63;;
495;SDS011;39559;48.630;9.162;2022-08-27T08:14:42;43.40;;;33.40;;
495;SDS011;39559;48.630;9.162;2022-08-27T08:17:08;42.27;;;33.23;;
495;SDS011;39559;48.630;9.162;2022-08-27T08:19:33;43.63;;;32.50;;
495;SDS011;39559;48.630;9.162;2022-08-27T08:21:59;39.60;;;31.40;;
495;SDS011;39559;48.630;9.162;2022-08-27T08:24:25;42.60;;;33.60;;
495;SDS011;39559;48.630;9.162;2022-08-27T08:26:51;55.13;;;33.73;;
495;SDS011;39559;48.630;9.162;2022-08-27T08:29:16;47.43;;;34.70;;
495;SDS011;39559;48.630;9.162;2022-08-27T08:31:42;45.43;;;34.53;;
495;SDS011;39559;48.630;9.162;2022-08-27T08:36:13;42.73;;;32.00;;
495;SDS011;39559;48.630;9.162;2022-08-27T08:38:41;50.10;;;33.93;;
495;SDS011;39559;48.630;9.162;2022-08-27T08:43:52;41.17;;;33.70;;
495;SDS011;39559;48.630;9.162;2022-08-27T08:48:56;43.77;;;34.47;;
495;SDS011;39559;48.630;9.162;2022-08-27T08:51:34;42.97;;;32.93;;
495;SDS011;39559;48.630;9.162;2022-08-27T08:54:06;45.33;;;33.53;;
495;SDS011;39559;48.630;9.162;2022-08-27T09:00:10;42.70;;;32.63;;
495;SDS011;39559;48.630;9.162;2022-08-27T09:02:38;43.83;;;34.63;;
495;SDS011;39559;48.630;9.162;2022-08-27T09:05:05;40.40;;;32.83;;
495;SDS011;39559;48.630;9.162;2022-08-27T09:07:48;47.10;;;35.27;;
495;SDS011;39559;48.630;9.162;2022-08-27T09:13:42;37.07;;;29.77;;
495;SDS011;39559;48.630;9.162;2022-08-27T09:16:14;38.47;;;31.63;;
495;SDS011;39559;48.630;9.162;2022-08-27T09:18:40;38.97;;;30.87;;
495;SDS011;39559;48.630;9.162;2022-08-27T09:26:38;41.40;;;32.93;;
495;SDS011;39559;48.630;9.162;2022-08-27T09:29:08;42.23;;;31.73;;
495;SDS011;39559;48.630;9.162;2022-08-27T09:34:13;39.27;;;31.43;;
495;SDS011;39559;48.630;9.162;2022-08-27T09:43:07;40.93;;;32.10;;
495;SDS011;39559;48.630;9.162;2022-08-27T09:45:21;47.80;;;33.40;;
495;SDS011;39559;48.630;9.162;2022-08-27T09:48:09;46.40;;;34.50;;
495;SDS011;39559;48.630;9.162;2022-08-27T09:50:45;45.37;;;34.67;;
495;SDS011;39559;48.630;9.162;2022-08-27T09:53:17;48.53;;;34.50;;
495;SDS011;39559;48.630;9.162;2022-08-27T09:55:46;44.03;;;33.63;;
495;SDS011;39559;48.630;9.162;2022-08-27T09:58:21;46.80;;;33.70;;
495;SDS011;39559;48.630;9.162;2022-08-27T10:01:14;46.80;;;33.77;;
495;SDS011;39559;48.630;9.162;2022-08-27T10:03:42;42.50;;;32.70;;
495;SDS011;39559;48.630;9.162;2022-08-27T10:06:08;46.97;;;33.77;;
495;SDS011;39559;48.630;9.162;2022-08-27T10:08:48;43.63;;;32.20;;
495;SDS011;39559;48.630;9.162;2022-08-27T10:14:25;45.30;;;31.87;;
495;SDS011;39559;48.630;9.162;2022-08-27T10:24:54;43.10;;;33.10;;
495;SDS011;39559;48.630;9.162;2022-08-27T10:33:16;49.60;;;34.97;;
495;SDS011;39559;48.630;9.162;2022-08-27T10:38:49;46.73;;;33.53;;
495;SDS011;39559;48.630;9.162;2022-08-27T10:41:48;45.83;;;32.70;;
495;SDS011;39559;48.630;9.162;2022-08-27T10:50:07;50.00;;;33.10;;
495;SDS011;39559;48.630;9.162;2022-08-27T10:55:33;35.80;;;27.83;;
495;SDS011;39559;48.630;9.162;2022-08-27T10:59:59;24.50;;;20.70;;
495;SDS011;39559;48.630;9.162;2022-08-27T11:02:41;23.10;;;18.77;;
495;SDS011;39559;48.630;9.162;2022-08-27T11:05:22;27.83;;;21.17;;
495;SDS011;39559;48.630;9.162;2022-08-27T11:08:02;22.10;;;18.60;;
495;SDS011;39559;48.630;9.162;2022-08-27T11:10:38;23.97;;;20.53;;
495;SDS011;39559;48.630;9.162;2022-08-27T11:13:12;17.07;;;15.33;;
495;SDS011;39559;48.630;9.162;2022-08-27T11:15:43;16.90;;;15.20;;
495;SDS011;39559;48.630;9.162;2022-08-27T11:23:51;18.63;;;16.40;;
495;SDS011;39559;48.630;9.162;2022-08-27T11:26:22;21.03;;;17.23;;
495;SDS011;39559;48.630;9.162;2022-08-27T11:28:49;18.63;;;16.80;;
495;SDS011;39559;48.630;9.162;2022-08-27T11:34:13;19.27;;;17.20;;
495;SDS011;39559;48.630;9.162;2022-08-27T11:36:59;19.40;;;17.40;;
495;SDS011;39559;48.630;9.162;2022-08-27T11:42:41;20.50;;;18.30;;
495;SDS011;39559;48.630;9.162;2022-08-27T11:47:54;20.50;;;18.20;;
495;SDS011;39559;48.630;9.162;2022-08-27T11:50:23;20.43;;;17.97;;
495;SDS011;39559;48.630;9.162;2022-08-27T11:52:57;21.23;;;18.13;;
495;SDS011;39559;48.630;9.162;2022-08-27T11:55:31;20.87;;;18.67;;
495;SDS011;39559;48.630;9.162;2022-08-27T11:58:24;22.17;;;19.77;;
495;SDS011;39559;48.630;9.162;2022-08-27T12:00:55;24.00;;;19.97;;
495;SDS011;39559;48.630;9.162;2022-08-27T12:11:40;25.13;;;20.00;;
495;SDS011;39559;48.630;9.162;2022-08-27T12:14:19;23.33;;;20.40;;
495;SDS011;39559;48.630;9.162;2022-08-27T12:17:06;24.13;;;19.13;;
495;SDS011;39559;48.630;9.162;2022-08-27T12:26:00;22.83;;;20.37;;
495;SDS011;39559;48.630;9.162;2022-08-27T12:28:37;22.63;;;20.30;;
495;SDS011;39559;48.630;9.162;2022-08-27T12:31:03;24.00;;;21.27;;
495;SDS011;39559;48.630;9.162;2022-08-27T12:35:40;28.83;;;21.83;;
495;SDS011;39559;48.630;9.162;2022-08-27T12:38:32;24.83;;;22.13;;
495;SDS011;39559;48.630;9.162;2022-08-27T12:41:06;26.50;;;22.80;;
495;SDS011;39559;48.630;9.162;2022-08-27T12:43:36;24.37;;;21.37;;
495;SDS011;39559;48.630;9.162;2022-08-27T12:46:12;26.13;;;22.77;;
495;SDS011;39559;48.630;9.162;2022-08-27T12:48:41;29.10;;;22.53;;
495;SDS011;39559;48.630;9.162;2022-08-27T12:51:21;24.00;;;21.40;;
495;SDS011;39559;48.630;9.162;2022-08-27T13:04:50;29.10;;;25.07;;
495;SDS011;39559;48.630;9.162;2022-08-27T13:07:31;30.63;;;26.40;;
495;SDS011;39559;48.630;9.162;2022-08-27T13:10:09;28.63;;;25.50;;
495;SDS011;39559;48.630;9.162;2022-08-27T13:12:38;29.27;;;24.57;;
495;SDS011;39559;48.630;9.162;2022-08-27T13:15:08;30.03;;;26.87;;
495;SDS011;39559;48.630;9.162;2022-08-27T13:17:38;35.37;;;27.30;;
495;SDS011;39559;48.630;9.162;2022-08-27T13:20:13;29.00;;;25.77;;
495;SDS011;39559;48.630;9.162;2022-08-27T13:23:24;32.10;;;26.27;;
495;SDS011;39559;48.630;9.162;2022-08-27T13:25:56;32.10;;;26.43;;
495;SDS011;39559;48.630;9.162;2022-08-27T13:28:34;33.43;;;27.03;;
495;SDS011;39559;48.630;9.162;2022-08-27T13:31:02;30.07;;;25.90;;
495;SDS011;39559;48.630;9.162;2022-08-27T13:33:31;27.87;;;24.10;;
495;SDS011;39559;48.630;9.162;2022-08-27T13:35:59;32.30;;;27.23;;
495;SDS011;39559;48.630;9.162;2022-08-27T13:38:29;31.47;;;27.63;;
495;SDS011;39559;48.630;9.162;2022-08-27T13:41:03;29.40;;;25.80;;
495;SDS011;39559;48.630;9.162;2022-08-27T13:47:23;27.67;;;24.20;;
495;SDS011;39559;48.630;9.162;2022-08-27T13:50:05;26.00;;;23.20;;
495;SDS011;39559;48.630;9.162;2022-08-27T13:52:38;32.70;;;25.63;;
495;SDS011;39559;48.630;9.162;2022-08-27T13:55:25;37.97;;;27.40;;
495;SDS011;39559;48.630;9.162;2022-08-27T13:57:52;34.30;;;27.77;;
495;SDS011;39559;48.630;9.162;2022-08-27T14:00:22;28.43;;;24.13;;
495;SDS011;39559;48.630;9.162;2022-08-27T14:02:51;34.30;;;27.87;;
495;SDS011;39559;48.630;9.162;2022-08-27T14:11:16;14.60;;;13.10;;
495;SDS011;39559;48.630;9.162;2022-08-27T14:13:47;14.20;;;12.77;;
495;SDS011;39559;48.630;9.162;2022-08-27T14:16:22;13.00;;;11.70;;
495;SDS011;39559;48.630;9.162;2022-08-27T14:18:52;12.43;;;11.13;;
495;SDS011;39559;48.630;9.162;2022-08-27T14:21:21;12.63;;;10.60;;
495;SDS011;39559;48.630;9.162;2022-08-27T14:23:47;14.50;;;11.60;;
495;SDS011;39559;48.630;9.162;2022-08-27T14:26:13;15.70;;;13.60;;
495;SDS011;39559;48.630;9.162;2022-08-27T14:28:41;14.87;;;13.37;;
495;SDS011;39559;48.630;9.162;2022-08-27T14:31:07;13.67;;;12.37;;
495;SDS011;39559;48.630;9.162;2022-08-27T14:35:12;24.50;;;14.70;;
495;SDS011;39559;48.630;9.162;2022-08-27T14:37:38;12.77;;;11.57;;
495;SDS011;39559;48.630;9.162;2022-08-27T14:40:05;12.40;;;11.13;;
495;SDS011;39559;48.630;9.162;2022-08-27T14:42:32;12.83;;;11.63;;
495;SDS011;39559;48.630;9.162;2022-08-27T14:44:58;13.73;;;12.37;;
495;SDS011;39559;48.630;9.162;2022-08-27T14:47:24;12.40;;;11.20;;
495;SDS011;39559;48.630;9.162;2022-08-27T14:49:50;11.90;;;10.67;;
495;SDS011;39559;48.630;9.162;2022-08-27T14:52:16;11.57;;;10.57;;
495;SDS011;39559;48.630;9.162;2022-08-27T14:54:42;11.57;;;10.47;;
495;SDS011;39559;48.630;9.162;2022-08-27T14:59:08;11.73;;;10.50;;
495;SDS011;39559;48.630;9.162;2022-08-27T15:01:33;12.30;;;11.20;;
495;SDS011;39559;48.630;9.162;2022-08-27T15:04:02;11.40;;;10.30;;
495;SDS011;39559;48.630;9.162;2022-08-27T15:06:28;11.27;;;10.27;;
495;SDS011;39559;48.630;9.162;2022-08-27T15:08:54;11.07;;;10.03;;
495;SDS011;39559;48.630;9.162;2022-08-27T15:11:21;11.93;;;10.80;;
495;SDS011;39559;48.630;9.162;2022-08-27T15:13:50;11.10;;;10.10;;
495;SDS011;39559;48.630;9.162;2022-08-27T15:16:31;11.83;;;10.63;;
495;SDS011;39559;48.630;9.162;2022-08-27T15:19:03;11.97;;;10.83;;
495;SDS011;39559;48.630;9.162;2022-08-27T15:23:03;11.90;;;10.80;;
495;SDS011;39559;48.630;9.162;2022-08-27T15:25:29;13.23;;;11.83;;
495;SDS011;39559;48.630;9.162;2022-08-27T15:27:55;12.37;;;11.17;;
495;SDS011;39559;48.630;9.162;2022-08-27T15:30:27;12.00;;;10.80;;
495;SDS011;39559;48.630;9.162;2022-08-27T15:32:53;12.20;;;10.87;;
495;SDS011;39559;48.630;9.162;2022-08-27T15:35:20;12.90;;;11.70;;
495;SDS011;39559;48.630;9.162;2022-08-27T15:37:50;13.50;;;12.10;;
495;SDS011;39559;48.630;9.162;2022-08-27T15:40:17;12.63;;;11.47;;
495;SDS011;39559;48.630;9.162;2022-08-27T15:42:43;13.70;;;12.40;;
495;SDS011;39559;48.630;9.162;2022-08-27T15:46:58;13.37;;;11.97;;
495;SDS011;39559;48.630;9.162;2022-08-27T15:49:24;25.57;;;12.00;;
495;SDS011;39559;48.630;9.162;2022-08-27T15:51:50;13.57;;;12.17;;
495;SDS011;39559;48.630;9.162;2022-08-27T15:54:16;12.10;;;10.90;;
495;SDS011;39559;48.630;9.162;2022-08-27T15:56:41;13.00;;;11.60;;
495;SDS011;39559;48.630;9.162;2022-08-27T15:59:07;13.27;;;11.87;;
495;SDS011;39559;48.630;9.162;2022-08-27T16:01:34;14.47;;;12.40;;
495;SDS011;39559;48.630;9.162;2022-08-27T16:04:01;13.73;;;12.33;;
495;SDS011;39559;48.630;9.162;2022-08-27T16:06:27;12.60;;;11.47;;
495;SDS011;39559;48.630;9.162;2022-08-27T16:10:55;12.97;;;11.67;;
495;SDS011;39559;48.630;9.162;2022-08-27T16:13:21;13.97;;;12.67;;
495;SDS011;39559;48.630;9.162;2022-08-27T16:15:49;13.57;;;12.00;;
495;SDS011;39559;48.630;9.162;2022-08-27T16:18:15;14.33;;;12.83;;
495;SDS011;39559;48.630;9.162;2022-08-27T16:20:49;16.20;;;13.30;;
495;SDS011;39559;48.630;9.162;2022-08-27T16:23:14;14.10;;;12.70;;
495;SDS011;39559;48.630;9.162;2022-08-27T16:25:40;14.53;;;13.10;;
495;SDS011;39559;48.630;9.162;2022-08-27T16:28:06;13.13;;;11.93;;
495;SDS011;39559;48.630;9.162;2022-08-27T16:30:31;14.60;;;13.10;;
495;SDS011;39559;48.630;9.162;2022-08-27T16:34:49;15.27;;;12.03;;
495;SDS011;39559;48.630;9.162;2022-08-27T16:37:15;15.33;;;13.80;;
495;SDS011;39559;48.630;9.162;2022-08-27T16:39:40;15.17;;;13.37;;
495;SDS011;39559;48.630;9.162;2022-08-27T16:42:07;18.00;;;13.50;;
495;SDS011;39559;48.630;9.162;2022-08-27T16:44:34;13.87;;;12.57;;
495;SDS011;39559;48.630;9.162;2022-08-27T16:47:00;14.23;;;12.73;;
495;SDS011;39559;48.630;9.162;2022-08-27T16:49:25;15.10;;;13.63;;
495;SDS011;39559;48.630;9.162;2022-08-27T16:52:09;17.10;;;12.87;;
495;SDS011;39559;48.630;9.162;2022-08-27T16:54:35;13.60;;;12.30;;
495;SDS011;39559;48.630;9.162;2022-08-27T16:58:45;16.53;;;14.73;;
495;SDS011;39559;48.630;9.162;2022-08-27T17:01:13;16.33;;;14.73;;
495;SDS011;39559;48.630;9.162;2022-08-27T17:04:02;14.80;;;13.10;;
495;SDS011;39559;48.630;9.162;2022-08-27T17:06:30;16.43;;;14.80;;
495;SDS011;39559;48.630;9.162;2022-08-27T17:08:56;16.50;;;14.80;;
495;SDS011;39559;48.630;9.162;2022-08-27T17:11:27;17.10;;;15.17;;
495;SDS011;39559;48.630;9.162;2022-08-27T17:13:55;17.07;;;15.30;;
495;SDS011;39559;48.630;9.162;2022-08-27T17:16:25;20.07;;;17.67;;
495;SDS011;39559;48.630;9.162;2022-08-27T17:18:53;17.63;;;15.83;;
495;SDS011;39559;48.630;9.162;2022-08-27T17:22:41;15.37;;;13.97;;
495;SDS011;39559;48.630;9.162;2022-08-27T17:25:07;17.50;;;15.70;;
495;SDS011;39559;48.630;9.162;2022-08-27T17:27:33;16.40;;;14.80;;
495;SDS011;39559;48.630;9.162;2022-08-27T17:29:59;18.90;;;16.87;;
495;SDS011;39559;48.630;9.162;2022-08-27T17:32:24;19.13;;;16.03;;
495;SDS011;39559;48.630;9.162;2022-08-27T17:34:50;17.80;;;16.10;;
495;SDS011;39559;48.630;9.162;2022-08-27T17:37:16;20.83;;;18.70;;
495;SDS011;39559;48.630;9.162;2022-08-27T17:39:41;18.10;;;16.13;;
495;SDS011;39559;48.630;9.162;2022-08-27T17:42:07;21.00;;;18.90;;
495;SDS011;39559;48.630;9.162;2022-08-27T17:46:36;19.30;;;17.07;;
495;SDS011;39559;48.630;9.162;2022-08-27T17:49:02;23.03;;;17.50;;